Main page
METAR-TAF:

METAR-TAF

Airports :

Rajkot Airport

Rajkot, India

latitude: 22-18N, longitude: 070-47E, elevation: 134 m

METAR: missing

Time: 07:06 (01:36 UTC)

Forecast

The report was made 2 hours and 36 minutes ago, at 23:00 UTC
Forecast valid from 15 at 00 UTC to 15 at 09 UTC
Wind 10 kt from the South/Southwest
Visibility: 6000 m
Scattered clouds at a height of 1200 ft
Scattered clouds at a height of 2000 ft
Broken clouds at a height of 8000 ft
Becoming
from 15 at 01 UTC to 15 at 03 UTC
Visibility: 2000 m
mist
Becoming
from 15 at 07 UTC to 15 at 09 UTC
Visibility: 4000 m
Few clouds at a height of 1500 ft
Scattered clouds at a height of 2000 ft
Few clouds at a height of 3000 ft, Towering cumulus.
Broken clouds at a height of 8000 ft
light rain, haze

TAF: VARK 142300Z 1500/1509 20010KT 6000 SCT012 SCT020 BKN080 BECMG 1501/1503 2000 BR BECMG 1507/1509 4000 -RAHZ FEW015 SCT020 FEW030TCU BKN080

Weather observations and forecasts of more than 4000 airports (METAR and TAF reports).

The available stations are represented by yellow and red dots on the map.

Hover mouse over dot to see the name of the station.

Then click to see weather observations and forecasts.

To change the map : click on the green buttons with a black cross to zoom in, on the green button with a dash to zoom out, or on the green arrows for adjacent maps.


METAR-TAF: